Time;durP1;ratioP1;P1;durP2;ratioP2;P2;SDS_P1;SDS_P2;PMS_P1;PMS_P2;Temp;Humidity;BMP_temperature;BMP_pressure;BME280_temperature;BME280_humidity;BME280_pressure;Samples;Min_cycle;Max_cycle;Signal;HPM_P1;HPM_P2
2023/07/19 00:00:12;;;;;;;0.20;0.17;;;16.40;99.90;;;;;;4998224;28;20117;-70
2023/07/19 00:02:38;;;;;;;0.30;0.20;;;16.40;99.90;;;;;;4986695;28;20499;-70
2023/07/19 00:05:04;;;;;;;0.25;0.10;;;16.40;99.90;;;;;;4984661;28;20081;-70
2023/07/19 00:07:30;;;;;;;1.55;0.35;;;16.40;99.90;;;;;;5004354;28;20437;-70
2023/07/19 00:09:56;;;;;;;0.15;0.10;;;16.30;99.90;;;;;;5003110;28;20058;-70
2023/07/19 00:12:22;;;;;;;0.13;0.10;;;16.30;99.90;;;;;;4995037;28;20142;-70
2023/07/19 00:14:47;;;;;;;0.77;0.15;;;16.30;99.90;;;;;;4996630;28;20128;-70
2023/07/19 00:17:13;;;;;;;0.43;0.10;;;16.20;99.90;;;;;;5002196;28;20072;-71
2023/07/19 00:19:39;;;;;;;0.20;0.10;;;16.20;99.90;;;;;;4997217;28;20054;-70
2023/07/19 00:22:05;;;;;;;0.32;0.20;;;16.20;99.90;;;;;;4993053;28;20117;-70
2023/07/19 00:24:31;;;;;;;0.28;0.20;;;16.20;99.90;;;;;;5001066;28;20116;-70
2023/07/19 00:26:56;;;;;;;0.75;0.10;;;16.10;99.90;;;;;;4999940;28;20049;-70
2023/07/19 00:29:22;;;;;;;0.22;0.15;;;16.10;99.90;;;;;;5004055;28;20545;-70
2023/07/19 00:31:48;;;;;;;0.30;0.20;;;16.10;99.90;;;;;;5002159;28;20042;-71
2023/07/19 00:34:14;;;;;;;0.30;0.20;;;16.10;99.90;;;;;;4998979;28;20030;-70
2023/07/19 00:36:39;;;;;;;0.38;0.15;;;16.10;99.90;;;;;;5001295;28;20568;-70
2023/07/19 00:39:05;;;;;;;1.73;0.10;;;16.10;99.90;;;;;;4997532;28;20096;-71
2023/07/19 00:41:31;;;;;;;0.40;0.17;;;16.10;99.90;;;;;;4992473;28;20451;-71
2023/07/19 00:43:57;;;;;;;0.30;0.17;;;16.10;99.90;;;;;;4997790;28;20041;-70
2023/07/19 00:46:23;;;;;;;0.10;0.10;;;16.10;99.90;;;;;;5000412;28;20138;-70
2023/07/19 00:48:49;;;;;;;0.50;0.28;;;16.10;99.90;;;;;;5006494;28;20133;-70
2023/07/19 00:51:16;;;;;;;3.70;0.60;;;16.10;99.90;;;;;;5006022;28;20072;-70
2023/07/19 00:53:43;;;;;;;0.20;0.10;;;16.20;99.90;;;;;;4997916;28;20050;-70
2023/07/19 00:56:10;;;;;;;0.30;0.20;;;16.20;99.90;;;;;;4999180;28;20049;-70
2023/07/19 00:58:36;;;;;;;0.25;0.17;;;16.20;99.90;;;;;;4994675;28;20042;-71
2023/07/19 01:01:02;;;;;;;0.47;0.22;;;16.30;99.90;;;;;;4993736;28;20061;-70
2023/07/19 01:03:28;;;;;;;0.40;0.20;;;16.30;99.90;;;;;;5000301;28;20378;-70
2023/07/19 01:05:57;;;;;;;0.20;0.10;;;16.30;99.90;;;;;;5001375;28;20049;-70
2023/07/19 01:08:23;;;;;;;0.70;0.25;;;16.30;99.90;;;;;;5002333;28;20034;-70
2023/07/19 01:10:49;;;;;;;0.57;0.28;;;16.30;99.90;;;;;;5003541;28;20096;-70
2023/07/19 01:13:15;;;;;;;0.20;0.10;;;16.30;99.90;;;;;;4998259;28;20053;-71
2023/07/19 01:15:40;;;;;;;0.20;0.10;;;16.20;99.90;;;;;;5001658;28;20482;-70
2023/07/19 01:18:07;;;;;;;1.85;0.15;;;16.30;99.90;;;;;;4998029;28;20073;-70
2023/07/19 01:20:33;;;;;;;0.73;0.30;;;16.30;99.90;;;;;;5006904;28;20045;-70
2023/07/19 01:22:59;;;;;;;0.80;0.40;;;16.20;99.90;;;;;;5002744;28;20034;-70
2023/07/19 01:25:25;;;;;;;0.05;0.05;;;16.20;99.90;;;;;;5004151;28;20465;-70
2023/07/19 01:27:51;;;;;;;0.30;0.10;;;16.20;99.90;;;;;;4998986;28;20037;-71
2023/07/19 01:30:17;;;;;;;0.38;0.10;;;16.20;99.90;;;;;;4999243;28;20116;-70
2023/07/19 01:32:44;;;;;;;0.80;0.30;;;16.20;99.90;;;;;;5003372;28;20048;-70
2023/07/19 01:35:10;;;;;;;0.30;0.00;;;16.20;99.90;;;;;;5006925;28;20104;-70
2023/07/19 01:37:36;;;;;;;0.75;0.25;;;16.20;99.90;;;;;;5008616;28;20042;-70
2023/07/19 01:40:05;;;;;;;1.75;0.35;;;16.20;99.90;;;;;;5007566;28;20442;-70
2023/07/19 01:42:31;;;;;;;0.95;0.10;;;16.20;99.90;;;;;;4999695;28;20038;-70
2023/07/19 01:44:57;;;;;;;0.20;0.10;;;16.20;99.90;;;;;;5000857;28;20140;-70
2023/07/19 01:47:22;;;;;;;0.45;0.20;;;16.20;99.90;;;;;;5000106;28;20121;-70
2023/07/19 01:49:48;;;;;;;0.10;0.10;;;16.20;99.90;;;;;;5003423;28;20136;-70
2023/07/19 01:52:15;;;;;;;0.00;0.00;;;16.20;99.90;;;;;;5000406;28;20255;-70
2023/07/19 01:54:41;;;;;;;0.30;0.10;;;16.30;99.90;;;;;;5007802;28;20398;-70
2023/07/19 01:57:06;;;;;;;0.15;0.10;;;16.20;99.90;;;;;;4999352;28;20049;-70
2023/07/19 01:59:32;;;;;;;0.10;0.10;;;16.20;99.90;;;;;;5001582;28;20038;-70
2023/07/19 02:01:58;;;;;;;0.22;0.10;;;16.20;99.90;;;;;;5006043;28;20790;-70
2023/07/19 02:04:23;;;;;;;0.77;0.20;;;16.20;99.90;;;;;;5004054;28;20096;-70
2023/07/19 02:06:49;;;;;;;0.13;0.10;;;16.20;99.90;;;;;;4995084;28;20034;-70
2023/07/19 02:09:15;;;;;;;0.40;0.10;;;16.20;99.90;;;;;;4997938;28;20066;-70
2023/07/19 02:11:41;;;;;;;0.93;0.30;;;16.10;99.90;;;;;;5019243;28;20042;-70
2023/07/19 02:14:07;;;;;;;1.27;0.32;;;16.10;99.90;;;;;;4999128;28;20068;-70
2023/07/19 02:16:34;;;;;;;1.45;0.30;;;16.10;99.90;;;;;;5009577;28;20042;-70
2023/07/19 02:19:01;;;;;;;0.80;0.20;;;16.10;99.90;;;;;;5004036;28;20065;-70
2023/07/19 02:21:26;;;;;;;1.02;0.15;;;16.10;99.90;;;;;;5001167;28;20173;-70
2023/07/19 02:23:52;;;;;;;1.55;0.43;;;16.10;99.90;;;;;;5001063;28;20500;-70
2023/07/19 02:26:18;;;;;;;0.50;0.30;;;16.10;99.90;;;;;;4998292;28;20034;-70
2023/07/19 02:28:43;;;;;;;1.17;0.25;;;16.10;99.90;;;;;;5003244;28;20033;-70
2023/07/19 02:31:09;;;;;;;0.50;0.20;;;16.10;99.90;;;;;;5004392;28;20137;-70
2023/07/19 02:33:35;;;;;;;0.30;0.20;;;16.10;99.90;;;;;;5003055;28;20509;-70
2023/07/19 02:36:00;;;;;;;0.70;0.35;;;16.10;99.90;;;;;;5002111;28;20159;-70
2023/07/19 02:38:26;;;;;;;0.70;0.20;;;16.10;99.90;;;;;;4998167;28;20050;-70
2023/07/19 02:40:58;;;;;;;0.32;0.20;;;16.10;99.90;;;;;;5005889;28;20034;-70
2023/07/19 02:43:24;;;;;;;0.63;0.20;;;16.10;99.90;;;;;;5003314;28;20030;-70
2023/07/19 02:45:52;;;;;;;1.20;0.28;;;16.10;99.90;;;;;;4995530;28;20064;-70
2023/07/19 02:48:19;;;;;;;0.50;0.40;;;16.10;99.90;;;;;;5001565;28;20100;-70
2023/07/19 02:50:49;;;;;;;1.58;0.80;;;16.00;99.90;;;;;;5006163;28;20045;-70
2023/07/19 02:53:15;;;;;;;3.97;0.20;;;16.00;99.90;;;;;;5007619;28;20034;-70
2023/07/19 02:55:45;;;;;;;0.80;0.35;;;16.00;99.90;;;;;;4995584;28;20047;-70
2023/07/19 02:58:11;;;;;;;0.20;0.20;;;16.00;99.90;;;;;;5000169;28;20048;-70
2023/07/19 03:00:41;;;;;;;0.40;0.25;;;16.00;99.90;;;;;;5007434;28;20482;-70
2023/07/19 03:03:07;;;;;;;0.43;0.30;;;16.00;99.90;;;;;;5002019;28;20043;-70
2023/07/19 03:05:39;;;;;;;1.30;0.60;;;16.00;99.90;;;;;;4998536;28;20122;-70
2023/07/19 03:08:06;;;;;;;0.63;0.50;;;15.90;99.90;;;;;;5009481;28;20121;-70
2023/07/19 03:10:32;;;;;;;0.60;0.50;;;15.90;99.90;;;;;;5004969;28;20051;-70
2023/07/19 03:12:58;;;;;;;0.50;0.25;;;15.90;99.90;;;;;;5007610;28;20045;-70
2023/07/19 03:15:23;;;;;;;0.43;0.20;;;15.80;99.90;;;;;;4998554;28;20121;-70
2023/07/19 03:17:49;;;;;;;0.20;0.20;;;15.90;99.90;;;;;;5001690;28;20438;-70
2023/07/19 03:20:15;;;;;;;0.50;0.25;;;15.90;99.90;;;;;;5003756;28;20057;-70
2023/07/19 03:22:40;;;;;;;0.40;0.20;;;15.90;99.90;;;;;;4993835;28;20133;-70
2023/07/19 03:25:07;;;;;;;0.20;0.20;;;15.80;99.90;;;;;;4990765;28;20034;-70
2023/07/19 03:27:32;;;;;;;0.82;0.47;;;15.90;99.90;;;;;;5003132;28;20082;-70
2023/07/19 03:29:58;;;;;;;0.60;0.30;;;15.90;99.90;;;;;;5000946;28;20050;-70
2023/07/19 03:32:24;;;;;;;0.98;0.40;;;15.90;99.90;;;;;;5008065;28;20046;-70
2023/07/19 03:34:50;;;;;;;0.30;0.20;;;15.80;99.90;;;;;;5003640;28;20449;-70
2023/07/19 03:37:15;;;;;;;0.70;0.38;;;15.80;99.90;;;;;;5003449;28;20073;-70
2023/07/19 03:39:41;;;;;;;0.30;0.20;;;15.80;99.90;;;;;;5005723;28;20112;-70
2023/07/19 03:42:08;;;;;;;0.68;0.28;;;15.90;99.90;;;;;;4995245;28;20038;-70
2023/07/19 03:44:33;;;;;;;0.20;0.20;;;15.90;99.90;;;;;;4999159;28;20038;-70
2023/07/19 03:46:59;;;;;;;0.65;0.30;;;15.90;99.90;;;;;;5000338;28;20038;-70
2023/07/19 03:49:25;;;;;;;0.77;0.30;;;15.90;99.90;;;;;;5000400;28;20049;-70
2023/07/19 03:51:50;;;;;;;0.90;0.35;;;15.90;99.90;;;;;;4996358;28;20085;-70
2023/07/19 03:54:17;;;;;;;1.25;0.60;;;16.00;99.90;;;;;;5000925;28;20470;-70
2023/07/19 03:56:43;;;;;;;0.40;0.20;;;16.00;99.90;;;;;;5002710;28;20406;-70
2023/07/19 03:59:09;;;;;;;1.55;0.50;;;16.00;99.90;;;;;;5003335;28;20046;-70
2023/07/19 04:01:36;;;;;;;0.50;0.40;;;16.00;99.90;;;;;;4997143;28;20082;-70
2023/07/19 04:04:03;;;;;;;0.20;0.10;;;16.00;99.90;;;;;;5007061;28;20100;-70
2023/07/19 04:06:29;;;;;;;0.60;0.38;;;16.10;99.90;;;;;;5000582;28;20085;-70
2023/07/19 04:08:55;;;;;;;1.02;0.40;;;16.10;99.90;;;;;;5003489;28;20057;-70
2023/07/19 04:11:21;;;;;;;0.65;0.30;;;16.10;99.90;;;;;;5005077;28;20479;-70
2023/07/19 04:13:47;;;;;;;0.65;0.43;;;16.10;99.90;;;;;;5004950;28;20045;-70
2023/07/19 04:16:13;;;;;;;0.88;0.50;;;16.10;99.90;;;;;;5002997;28;20360;-70
2023/07/19 04:18:39;;;;;;;0.98;0.40;;;16.20;99.90;;;;;;4995936;28;20045;-70
2023/07/19 04:21:04;;;;;;;0.93;0.50;;;16.20;99.90;;;;;;4997734;28;20042;-70
2023/07/19 04:23:30;;;;;;;0.68;0.45;;;16.20;99.90;;;;;;5006581;28;20034;-70
2023/07/19 04:25:56;;;;;;;0.80;0.40;;;16.20;99.90;;;;;;5004805;28;20060;-70
2023/07/19 04:28:22;;;;;;;2.30;0.55;;;16.20;99.90;;;;;;4996475;28;20042;-70
2023/07/19 04:30:47;;;;;;;0.63;0.32;;;16.30;99.90;;;;;;4999963;28;20112;-70
2023/07/19 04:33:14;;;;;;;0.60;0.40;;;16.30;99.90;;;;;;5001347;28;20074;-70
2023/07/19 04:35:40;;;;;;;2.00;0.60;;;16.30;99.90;;;;;;4986094;28;20057;-70
2023/07/19 04:38:06;;;;;;;1.10;0.40;;;16.30;99.90;;;;;;4999012;28;20451;-70
2023/07/19 04:40:32;;;;;;;0.82;0.47;;;16.40;99.90;;;;;;4995454;28;20053;-70
2023/07/19 04:42:59;;;;;;;2.85;0.47;;;16.40;99.90;;;;;;5002564;28;20558;-70
2023/07/19 04:45:24;;;;;;;0.93;0.30;;;16.40;99.90;;;;;;5004501;28;20046;-70
2023/07/19 04:47:50;;;;;;;0.90;0.50;;;16.40;99.90;;;;;;4998904;28;20041;-70
2023/07/19 04:50:16;;;;;;;0.85;0.52;;;16.40;99.90;;;;;;5000821;28;20581;-70
2023/07/19 04:52:44;;;;;;;0.60;0.38;;;16.40;99.90;;;;;;5003305;28;20046;-70
2023/07/19 04:55:11;;;;;;;1.30;0.50;;;16.50;99.90;;;;;;5001867;28;20046;-70
2023/07/19 04:57:37;;;;;;;0.93;0.50;;;16.50;99.90;;;;;;5001958;28;20516;-70
2023/07/19 05:00:05;;;;;;;0.80;0.40;;;16.50;99.90;;;;;;5003669;28;20057;-70
2023/07/19 05:02:31;;;;;;;2.33;0.40;;;16.50;99.90;;;;;;5007052;28;20042;-70
2023/07/19 05:04:56;;;;;;;0.85;0.50;;;16.50;99.90;;;;;;5004268;28;20634;-70
2023/07/19 05:07:22;;;;;;;0.40;0.30;;;16.50;99.90;;;;;;5001127;28;20113;-70
2023/07/19 05:09:48;;;;;;;0.63;0.25;;;16.60;99.90;;;;;;5002139;28;20136;-70
2023/07/19 05:12:14;;;;;;;0.65;0.30;;;16.50;99.90;;;;;;5007915;28;20054;-70
2023/07/19 05:14:41;;;;;;;0.30;0.20;;;16.50;99.90;;;;;;5006332;28;20045;-70
2023/07/19 05:17:07;;;;;;;0.38;0.25;;;16.60;99.90;;;;;;4999498;28;20054;-70
2023/07/19 05:19:32;;;;;;;0.68;0.35;;;16.60;99.90;;;;;;5002212;28;20387;-70
2023/07/19 05:21:58;;;;;;;1.92;0.32;;;16.50;99.90;;;;;;4993149;28;20045;-70
2023/07/19 05:24:24;;;;;;;0.50;0.30;;;16.60;99.90;;;;;;5007743;28;20026;-70
2023/07/19 05:26:50;;;;;;;0.85;0.20;;;16.50;99.90;;;;;;4998380;28;20064;-70
2023/07/19 05:29:16;;;;;;;1.17;0.50;;;16.50;99.90;;;;;;4999420;28;20042;-70
2023/07/19 05:31:41;;;;;;;0.60;0.32;;;16.50;99.90;;;;;;5004921;28;20042;-69
2023/07/19 05:34:08;;;;;;;18.13;10.82;;;16.60;99.90;;;;;;5002812;28;20461;-70
2023/07/19 05:36:34;;;;;;;1.75;1.00;;;16.50;99.90;;;;;;5002420;28;20513;-69
2023/07/19 05:39:01;;;;;;;0.30;0.10;;;16.60;99.90;;;;;;5007272;28;20448;-70
2023/07/19 05:41:27;;;;;;;0.65;0.30;;;16.60;99.90;;;;;;5002877;28;20046;-70
2023/07/19 05:43:53;;;;;;;0.10;0.10;;;16.60;99.90;;;;;;5007818;28;20041;-70
2023/07/19 05:46:19;;;;;;;0.95;0.20;;;16.60;99.90;;;;;;5003605;28;20120;-70
2023/07/19 05:48:45;;;;;;;1.13;0.32;;;16.60;99.90;;;;;;5006000;28;20473;-70
2023/07/19 05:51:11;;;;;;;0.40;0.30;;;16.70;99.90;;;;;;5008180;28;20042;-70
2023/07/19 05:53:37;;;;;;;0.10;0.10;;;16.70;99.90;;;;;;5020748;28;20037;-70
2023/07/19 05:56:03;;;;;;;0.13;0.10;;;16.80;99.90;;;;;;5004935;28;20460;-70
2023/07/19 05:58:30;;;;;;;0.28;0.10;;;16.80;99.90;;;;;;5004867;28;20046;-70
2023/07/19 06:00:56;;;;;;;0.10;0.08;;;16.80;99.90;;;;;;5009915;28;20451;-70
2023/07/19 06:03:22;;;;;;;0.82;0.15;;;16.80;99.90;;;;;;5004281;28;20064;-69
2023/07/19 06:05:48;;;;;;;0.50;0.30;;;16.80;99.90;;;;;;5003266;28;20517;-70
2023/07/19 06:08:14;;;;;;;0.10;0.10;;;16.70;99.90;;;;;;5007014;28;20038;-70
2023/07/19 06:10:39;;;;;;;0.90;0.30;;;16.70;99.90;;;;;;5005936;28;20060;-70
2023/07/19 06:13:06;;;;;;;0.50;0.15;;;16.70;99.90;;;;;;5007710;28;20058;-70
2023/07/19 06:15:32;;;;;;;1.98;0.20;;;16.70;99.90;;;;;;5000842;28;20041;-70
2023/07/19 06:17:59;;;;;;;0.03;0.03;;;16.70;99.90;;;;;;5006073;28;20085;-70
2023/07/19 06:20:25;;;;;;;0.05;0.05;;;16.70;99.90;;;;;;4987633;28;20510;-70
2023/07/19 06:22:51;;;;;;;0.43;0.20;;;16.70;99.90;;;;;;5004540;28;20031;-70
2023/07/19 06:25:16;;;;;;;0.20;0.20;;;16.80;99.90;;;;;;5002976;28;20301;-70
2023/07/19 06:27:42;;;;;;;0.60;0.28;;;16.80;99.90;;;;;;5004051;28;20044;-70
2023/07/19 06:30:11;;;;;;;0.10;0.10;;;16.90;99.90;;;;;;5005317;28;20385;-70
2023/07/19 06:32:38;;;;;;;0.70;0.25;;;17.00;99.90;;;;;;5005246;28;20184;-70
2023/07/19 06:35:04;;;;;;;0.10;0.10;;;17.10;99.90;;;;;;5002151;28;20486;-71
2023/07/19 06:37:32;;;;;;;0.88;0.30;;;17.20;99.90;;;;;;5004260;28;20049;-71
2023/07/19 06:40:00;;;;;;;0.30;0.10;;;17.20;99.90;;;;;;5001411;28;20223;-71
2023/07/19 06:42:25;;;;;;;0.40;0.10;;;17.20;99.90;;;;;;5005479;28;20056;-70
2023/07/19 06:44:53;;;;;;;0.20;0.10;;;17.20;99.90;;;;;;5004792;28;20041;-71
2023/07/19 06:47:19;;;;;;;0.10;0.10;;;17.20;99.90;;;;;;5005463;28;20109;-70
2023/07/19 06:49:48;;;;;;;0.00;0.00;;;17.30;99.90;;;;;;5004128;28;20041;-70
2023/07/19 06:52:13;;;;;;;0.00;0.00;;;17.30;99.90;;;;;;5005116;28;20394;-70
2023/07/19 06:54:39;;;;;;;0.10;0.10;;;17.30;99.90;;;;;;5006450;28;20141;-71
2023/07/19 06:57:05;;;;;;;0.43;0.20;;;17.30;99.90;;;;;;5002566;28;20096;-71
2023/07/19 06:59:31;;;;;;;0.20;0.10;;;17.40;99.90;;;;;;4997997;28;20128;-70
2023/07/19 07:01:57;;;;;;;0.50;0.20;;;17.50;99.90;;;;;;5001075;28;20113;-71
2023/07/19 07:04:24;;;;;;;0.43;0.20;;;17.60;99.90;;;;;;5006400;28;20557;-71
2023/07/19 07:06:58;;;;;;;0.20;0.00;;;17.70;99.90;;;;;;5009560;28;20046;-71
2023/07/19 07:09:40;;;;;;;0.10;0.10;;;17.80;99.90;;;;;;4997568;28;20057;-70
2023/07/19 07:12:18;;;;;;;2.08;0.43;;;17.80;99.90;;;;;;5005311;28;20553;-71
2023/07/19 07:14:49;;;;;;;0.10;0.00;;;17.90;99.90;;;;;;4998555;28;20042;-69
2023/07/19 07:17:23;;;;;;;0.80;0.20;;;17.90;99.90;;;;;;5003405;28;20140;-70
2023/07/19 07:19:53;;;;;;;0.82;0.10;;;17.90;99.90;;;;;;4999531;28;20041;-69
2023/07/19 07:22:20;;;;;;;0.00;0.00;;;17.80;99.90;;;;;;4998602;28;20034;-69
2023/07/19 07:24:46;;;;;;;0.00;0.00;;;17.90;99.90;;;;;;5001711;28;20041;-69
2023/07/19 07:27:12;;;;;;;0.10;0.05;;;17.90;99.90;;;;;;5005325;28;20727;-70
2023/07/19 07:29:41;;;;;;;0.13;0.10;;;17.90;99.90;;;;;;5007209;28;20095;-69
2023/07/19 07:32:11;;;;;;;0.20;0.10;;;18.00;99.90;;;;;;4999174;28;20112;-69
2023/07/19 07:34:37;;;;;;;0.40;0.00;;;18.00;99.90;;;;;;4999179;28;20113;-70
2023/07/19 07:37:03;;;;;;;0.10;0.00;;;18.00;99.90;;;;;;5003649;28;20080;-69
2023/07/19 07:39:29;;;;;;;0.08;0.00;;;18.00;99.90;;;;;;4992765;28;20084;-69
2023/07/19 07:41:55;;;;;;;0.10;0.10;;;18.10;99.90;;;;;;4996187;28;20042;-69
2023/07/19 07:44:21;;;;;;;0.05;0.00;;;18.10;99.90;;;;;;4999931;28;20490;-69
2023/07/19 07:46:47;;;;;;;1.80;0.10;;;18.10;99.90;;;;;;5000258;28;20045;-69
2023/07/19 07:49:12;;;;;;;0.32;0.13;;;18.10;99.90;;;;;;4997376;28;20272;-68
2023/07/19 07:51:38;;;;;;;0.22;0.00;;;18.10;99.90;;;;;;4998165;28;20072;-69
2023/07/19 07:54:04;;;;;;;0.05;0.05;;;18.00;99.90;;;;;;4998313;28;20046;-69
2023/07/19 07:56:30;;;;;;;0.45;0.20;;;18.10;99.90;;;;;;5002519;28;20134;-68
2023/07/19 07:58:55;;;;;;;0.52;0.10;;;18.10;99.90;;;;;;4992980;28;20051;-69
2023/07/19 08:01:21;;;;;;;0.10;0.10;;;18.10;99.90;;;;;;4993836;28;20069;-69
2023/07/19 08:03:47;;;;;;;1.23;0.10;;;18.10;99.90;;;;;;5007636;28;20049;-69
2023/07/19 08:06:13;;;;;;;0.30;0.10;;;18.10;99.90;;;;;;4997610;28;20042;-69
2023/07/19 08:08:39;;;;;;;0.30;0.10;;;18.10;99.90;;;;;;4994294;28;20104;-69
2023/07/19 08:11:09;;;;;;;0.03;0.00;;;18.00;99.90;;;;;;4998147;28;20073;-69
2023/07/19 08:13:35;;;;;;;0.10;0.00;;;18.00;99.90;;;;;;5004254;28;20124;-68
2023/07/19 08:16:00;;;;;;;0.15;0.10;;;18.00;99.90;;;;;;4998442;28;20124;-68
2023/07/19 08:18:26;;;;;;;0.20;0.03;;;18.00;99.90;;;;;;4999285;28;20042;-69
2023/07/19 08:20:52;;;;;;;0.32;0.00;;;18.10;99.90;;;;;;4998074;28;20034;-68
2023/07/19 08:23:19;;;;;;;0.38;0.10;;;18.20;99.90;;;;;;5002752;28;20070;-68
2023/07/19 08:25:45;;;;;;;0.00;0.00;;;18.30;99.90;;;;;;4998077;28;20702;-68
2023/07/19 08:28:10;;;;;;;0.00;0.00;;;18.30;99.90;;;;;;4998196;28;20042;-68
2023/07/19 08:30:36;;;;;;;0.90;0.10;;;18.40;99.90;;;;;;5001738;28;20384;-68
2023/07/19 08:33:08;;;;;;;0.13;0.08;;;18.60;99.90;;;;;;5003002;28;20057;-68
2023/07/19 08:35:33;;;;;;;1.23;0.13;;;18.80;99.90;;;;;;5005644;28;20049;-68
2023/07/19 08:37:59;;;;;;;1.45;0.10;;;18.90;99.90;;;;;;5004319;28;20045;-68
2023/07/19 08:40:30;;;;;;;0.05;0.00;;;19.10;99.90;;;;;;4999559;28;20501;-68
2023/07/19 08:42:56;;;;;;;0.00;0.00;;;19.20;99.90;;;;;;5003710;28;20042;-69
2023/07/19 08:45:23;;;;;;;1.65;0.17;;;19.20;99.90;;;;;;5002959;28;20159;-69
2023/07/19 08:47:50;;;;;;;0.55;0.10;;;19.30;99.90;;;;;;4999488;28;20073;-69
2023/07/19 08:50:17;;;;;;;0.20;0.20;;;19.30;99.90;;;;;;5000057;28;20068;-69
2023/07/19 08:52:43;;;;;;;0.32;0.10;;;19.30;99.90;;;;;;5001355;28;20057;-69
2023/07/19 08:55:09;;;;;;;0.85;0.20;;;19.30;99.90;;;;;;5000085;28;20127;-69
2023/07/19 08:57:41;;;;;;;0.70;0.20;;;19.30;99.90;;;;;;4996843;28;20162;-69
2023/07/19 09:00:08;;;;;;;0.47;0.10;;;19.40;99.90;;;;;;5002017;28;20069;-70
2023/07/19 09:02:33;;;;;;;0.00;0.00;;;19.40;99.90;;;;;;4996659;28;20096;-70
2023/07/19 09:05:10;;;;;;;0.35;0.17;;;19.50;99.90;;;;;;5015614;28;20069;-70
2023/07/19 09:07:37;;;;;;;0.10;0.10;;;19.50;99.90;;;;;;5000976;28;20433;-70
2023/07/19 09:10:05;;;;;;;0.13;0.10;;;19.70;99.90;;;;;;5001461;28;20049;-70
2023/07/19 09:12:41;;;;;;;0.52;0.03;;;19.80;99.90;;;;;;5000840;28;20435;-70
2023/07/19 09:15:08;;;;;;;0.00;0.00;;;19.90;99.90;;;;;;4998877;28;20545;-70
2023/07/19 09:17:45;;;;;;;0.10;0.10;;;20.00;99.90;;;;;;5000281;28;20100;-70
2023/07/19 09:20:12;;;;;;;0.10;0.00;;;20.10;99.90;;;;;;5016256;28;20125;-70
2023/07/19 09:22:39;;;;;;;0.10;0.00;;;20.20;99.90;;;;;;4998663;28;20042;-70
2023/07/19 09:25:07;;;;;;;0.30;0.10;;;20.10;99.90;;;;;;4999018;28;20046;-70
2023/07/19 09:27:34;;;;;;;0.10;0.00;;;20.10;99.90;;;;;;4995220;28;20506;-70
2023/07/19 09:30:01;;;;;;;1.00;0.30;;;20.10;99.90;;;;;;5001957;28;20068;-69
2023/07/19 09:32:27;;;;;;;0.80;0.00;;;20.10;99.90;;;;;;4999787;28;20050;-70
2023/07/19 09:34:57;;;;;;;0.10;0.00;;;20.10;99.90;;;;;;4996116;28;20085;-70
2023/07/19 09:37:24;;;;;;;0.00;0.00;;;20.10;99.90;;;;;;4997708;28;20138;-70
2023/07/19 09:39:51;;;;;;;1.13;0.00;;;20.20;99.90;;;;;;4999121;28;20486;-70
2023/07/19 09:42:18;;;;;;;0.25;0.10;;;20.40;99.90;;;;;;5002408;28;20057;-68
2023/07/19 09:44:48;;;;;;;0.10;0.05;;;20.60;99.90;;;;;;5001108;28;20038;-68
2023/07/19 09:47:15;;;;;;;0.20;0.10;;;20.60;99.90;;;;;;5003726;28;20490;-68
2023/07/19 09:49:42;;;;;;;0.13;0.00;;;20.50;99.90;;;;;;4999373;28;20475;-68
2023/07/19 09:52:11;;;;;;;0.20;0.10;;;20.60;99.90;;;;;;4995428;28;20367;-69
2023/07/19 09:54:38;;;;;;;0.00;0.00;;;20.80;99.90;;;;;;4996874;28;20545;-68
2023/07/19 09:57:04;;;;;;;0.08;0.05;;;21.10;99.90;;;;;;5001146;28;20045;-68
2023/07/19 09:59:33;;;;;;;0.38;0.10;;;21.10;99.90;;;;;;5002956;28;20034;-69
2023/07/19 10:01:59;;;;;;;0.05;0.00;;;21.10;99.90;;;;;;4999838;28;20030;-69
2023/07/19 10:04:28;;;;;;;0.00;0.00;;;21.20;99.90;;;;;;4997910;28;20034;-69
2023/07/19 10:07:19;;;;;;;0.20;0.08;;;21.10;99.90;;;;;;5001573;28;20108;-69
2023/07/19 10:09:47;;;;;;;0.10;0.00;;;20.80;99.90;;;;;;4997041;28;20062;-69
2023/07/19 10:12:16;;;;;;;0.10;0.10;;;20.80;99.90;;;;;;5000011;28;20140;-69
2023/07/19 10:14:56;;;;;;;0.10;0.00;;;21.10;99.90;;;;;;4999446;28;20324;-69
2023/07/19 10:17:23;;;;;;;0.10;0.10;;;21.10;99.90;;;;;;5006684;28;20522;-69
2023/07/19 10:20:03;;;;;;;0.10;0.00;;;21.00;99.90;;;;;;5004094;28;20041;-69
2023/07/19 10:22:52;;;;;;;0.13;0.00;;;20.80;99.90;;;;;;5001925;28;20053;-69
2023/07/19 10:25:25;;;;;;;0.00;0.00;;;20.60;99.90;;;;;;4999569;28;20046;-68
2023/07/19 10:28:01;;;;;;;0.00;0.00;;;20.40;99.90;;;;;;5004786;28;20431;-69
2023/07/19 10:30:45;;;;;;;0.00;0.00;;;20.30;99.90;;;;;;4999327;28;20287;-68
2023/07/19 10:33:13;;;;;;;0.00;0.00;;;20.10;99.90;;;;;;5001484;28;20045;-69
2023/07/19 10:35:39;;;;;;;0.22;0.10;;;19.90;99.90;;;;;;4999960;28;20038;-69
2023/07/19 10:38:05;;;;;;;0.30;0.10;;;19.80;99.90;;;;;;5003606;28;20735;-68
2023/07/19 10:40:31;;;;;;;0.20;0.03;;;19.60;99.90;;;;;;5002641;28;20542;-68
2023/07/19 10:42:56;;;;;;;0.10;0.00;;;19.50;99.90;;;;;;5002892;28;20038;-68
2023/07/19 10:45:25;;;;;;;0.28;0.10;;;19.30;99.90;;;;;;4998803;28;20068;-67
2023/07/19 10:47:52;;;;;;;0.70;0.00;;;19.20;99.90;;;;;;5002100;28;20246;-67
2023/07/19 10:50:17;;;;;;;0.10;0.00;;;19.10;99.90;;;;;;4999073;28;20567;-67
2023/07/19 10:52:46;;;;;;;0.00;0.00;;;19.00;99.90;;;;;;5004645;28;20109;-66
2023/07/19 10:55:13;;;;;;;0.15;0.00;;;19.00;99.90;;;;;;5000360;28;20465;-67
2023/07/19 10:57:39;;;;;;;0.98;0.20;;;18.90;99.90;;;;;;5003081;28;20137;-66
2023/07/19 11:00:12;;;;;;;0.00;0.00;;;18.90;99.90;;;;;;5005168;28;20104;-66
2023/07/19 11:02:42;;;;;;;0.13;0.00;;;18.80;99.90;;;;;;5004693;28;20038;-66
2023/07/19 11:05:09;;;;;;;1.17;0.10;;;18.80;99.90;;;;;;5000807;28;20080;-66
2023/07/19 11:07:35;;;;;;;0.22;0.00;;;18.80;99.90;;;;;;5003797;28;20482;-66
2023/07/19 11:10:02;;;;;;;0.57;0.10;;;18.80;99.90;;;;;;5000204;28;20057;-65
2023/07/19 11:12:30;;;;;;;0.10;0.00;;;18.80;99.90;;;;;;5002130;28;20060;-65
2023/07/19 11:14:58;;;;;;;0.00;0.00;;;18.70;99.90;;;;;;4999478;28;20034;-67
2023/07/19 11:17:29;;;;;;;0.13;0.00;;;18.70;99.90;;;;;;5003758;28;20116;-66
2023/07/19 11:19:57;;;;;;;0.05;0.05;;;18.80;99.90;;;;;;5003669;28;20081;-66
2023/07/19 11:22:24;;;;;;;0.15;0.05;;;18.80;99.90;;;;;;5003715;28;20033;-66
2023/07/19 11:24:53;;;;;;;0.28;0.10;;;18.90;99.90;;;;;;5006641;28;20402;-66
2023/07/19 11:27:35;;;;;;;0.32;0.00;;;19.10;99.90;;;;;;5002408;28;20112;-67
2023/07/19 11:30:01;;;;;;;0.13;0.10;;;19.30;99.90;;;;;;5003426;28;20160;-66
2023/07/19 11:32:27;;;;;;;0.10;0.10;;;19.40;99.90;;;;;;5001948;28;20054;-67
2023/07/19 11:34:56;;;;;;;0.28;0.10;;;19.60;99.90;;;;;;4999013;28;20042;-67
2023/07/19 11:37:27;;;;;;;0.17;0.10;;;19.60;99.90;;;;;;5003482;28;20411;-67
2023/07/19 11:39:57;;;;;;;0.90;0.32;;;19.70;99.90;;;;;;5003517;28;20096;-67
2023/07/19 11:42:39;;;;;;;0.10;0.10;;;20.00;99.90;;;;;;5001261;28;20116;-67
2023/07/19 11:45:12;;;;;;;0.20;0.10;;;20.30;99.90;;;;;;5004750;28;20046;-67
2023/07/19 11:47:40;;;;;;;0.80;0.10;;;20.50;99.90;;;;;;5005531;28;20034;-67
2023/07/19 11:50:06;;;;;;;0.30;0.10;;;20.40;99.90;;;;;;5005531;28;20680;-67
2023/07/19 11:52:51;;;;;;;1.02;0.28;;;20.30;99.90;;;;;;5001644;28;20089;-67
2023/07/19 11:55:19;;;;;;;0.10;0.10;;;20.20;99.90;;;;;;4998063;28;20042;-66
2023/07/19 11:57:51;;;;;;;0.13;0.10;;;20.10;99.90;;;;;;4997812;28;20046;-67
2023/07/19 12:00:20;;;;;;;0.20;0.10;;;20.10;99.90;;;;;;5001768;28;20045;-66
2023/07/19 12:02:47;;;;;;;0.30;0.15;;;20.10;99.90;;;;;;5003646;28;20058;-66
2023/07/19 12:05:16;;;;;;;0.43;0.20;;;20.10;99.90;;;;;;4998045;28;20038;-66
2023/07/19 12:07:42;;;;;;;0.50;0.20;;;20.10;99.90;;;;;;4998695;28;20038;-65
2023/07/19 12:10:08;;;;;;;1.35;0.20;;;20.10;99.90;;;;;;4998167;28;20062;-66
2023/07/19 12:12:36;;;;;;;0.40;0.10;;;20.10;99.90;;;;;;4998377;28;20050;-66
2023/07/19 12:15:05;;;;;;;0.30;0.20;;;20.00;99.90;;;;;;5000386;28;20117;-67
2023/07/19 12:17:32;;;;;;;1.02;0.20;;;20.00;99.90;;;;;;4997460;28;20077;-68
2023/07/19 12:19:59;;;;;;;0.30;0.20;;;20.00;99.90;;;;;;5000226;28;20078;-68
2023/07/19 12:22:28;;;;;;;0.10;0.08;;;20.00;99.90;;;;;;5017112;28;20477;-67
2023/07/19 12:24:55;;;;;;;0.38;0.10;;;20.10;99.90;;;;;;5003171;28;20045;-67
2023/07/19 12:27:26;;;;;;;0.17;0.10;;;20.10;99.90;;;;;;5002965;28;20041;-67
2023/07/19 12:29:52;;;;;;;0.40;0.10;;;20.10;99.90;;;;;;5003669;28;20511;-67
2023/07/19 12:32:18;;;;;;;0.00;0.00;;;20.20;99.90;;;;;;5005720;28;20042;-68
2023/07/19 12:34:45;;;;;;;0.10;0.00;;;20.30;99.90;;;;;;5000473;28;20129;-67
2023/07/19 12:37:13;;;;;;;0.10;0.10;;;20.40;99.90;;;;;;5003077;28;20542;-67
2023/07/19 12:39:40;;;;;;;2.00;0.20;;;20.40;99.90;;;;;;4997612;28;20050;-67
2023/07/19 12:42:07;;;;;;;0.20;0.17;;;20.50;99.90;;;;;;5000739;28;20524;-67
2023/07/19 12:44:34;;;;;;;0.28;0.10;;;20.60;99.90;;;;;;4997839;28;20121;-67
2023/07/19 12:47:00;;;;;;;1.38;0.30;;;20.70;99.90;;;;;;5004169;28;20141;-67